Time,TemperatureF,DewpointF,PressureIn,WindDirection,WindDirectionDegrees,WindSpeedMPH,WindSpeedGustMPH,Humidity,HourlyPrecipIn,Conditions,Clouds,dailyrainin,SolarRadiationWatts/m^2,SoftwareType,DateUTC
2013-05-21 00:13:00,55.9,47.0,29.91,East,88,1.0,2.0,71,0.00,,,0.00,0,weatherlink.com 1.10,2013-05-21 07:13:00,
2013-05-21 00:28:00,55.1,47.0,29.90,East,88,0.0,1.0,74,0.00,,,0.00,0,weatherlink.com 1.10,2013-05-21 07:28:00,
2013-05-21 00:43:00,54.3,47.0,29.90,East,88,0.0,1.0,76,0.00,,,0.00,0,weatherlink.com 1.10,2013-05-21 07:43:00,
2013-05-21 00:58:00,53.5,47.0,29.90,East,88,0.0,0.0,78,0.00,,,0.00,0,weatherlink.com 1.10,2013-05-21 07:58:00,
2013-05-21 01:13:00,52.9,47.0,29.90,East,88,0.0,1.0,79,0.00,,,0.00,0,weatherlink.com 1.10,2013-05-21 08:13:00,
2013-05-21 01:28:00,52.5,47.0,29.90,East,86,0.0,1.0,80,0.00,,,0.00,0,weatherlink.com 1.10,2013-05-21 08:28:00,
2013-05-21 01:43:00,52.1,46.0,29.89,East,86,0.0,0.0,80,0.00,,,0.00,0,weatherlink.com 1.10,2013-05-21 08:43:00,
2013-05-21 01:58:00,51.8,46.0,29.89,East,86,0.0,0.0,81,0.00,,,0.00,0,weatherlink.com 1.10,2013-05-21 08:58:00,
2013-05-21 02:13:00,51.6,46.0,29.89,East,86,0.0,0.0,82,0.00,,,0.00,0,weatherlink.com 1.10,2013-05-21 09:13:00,
2013-05-21 02:28:00,51.5,47.0,29.89,East,86,0.0,2.0,83,0.00,,,0.00,0,weatherlink.com 1.10,2013-05-21 09:28:00,
2013-05-21 02:43:00,51.4,46.0,29.88,East,86,0.0,1.0,83,0.00,,,0.00,0,weatherlink.com 1.10,2013-05-21 09:43:00,
2013-05-21 02:58:00,51.4,47.0,29.89,East,86,0.0,0.0,84,0.00,,,0.00,0,weatherlink.com 1.10,2013-05-21 09:58:00,
2013-05-21 03:13:00,51.5,47.0,29.89,NE,42,0.0,1.0,84,0.00,,,0.00,0,weatherlink.com 1.10,2013-05-21 10:13:00,
2013-05-21 03:28:00,51.5,47.0,29.88,NE,41,0.0,0.0,84,0.00,,,0.00,0,weatherlink.com 1.10,2013-05-21 10:28:00,
2013-05-21 03:43:00,51.5,47.0,29.88,NE,42,0.0,0.0,83,0.00,,,0.00,0,weatherlink.com 1.10,2013-05-21 10:43:00,
2013-05-21 03:58:00,51.5,47.0,29.88,NE,41,0.0,0.0,83,0.00,,,0.00,0,weatherlink.com 1.10,2013-05-21 10:58:00,
2013-05-21 04:13:00,51.6,47.0,29.88,NE,42,0.0,1.0,83,0.00,,,0.00,0,weatherlink.com 1.10,2013-05-21 11:13:00,
2013-05-21 04:28:00,51.6,47.0,29.88,NE,41,0.0,0.0,83,0.00,,,0.00,0,weatherlink.com 1.10,2013-05-21 11:28:00,
2013-05-21 04:43:00,51.6,46.0,29.89,NE,41,0.0,1.0,82,0.00,,,0.00,0,weatherlink.com 1.10,2013-05-21 11:43:00,
2013-05-21 04:58:00,51.8,46.0,29.89,NE,41,0.0,1.0,80,0.00,,,0.00,0,weatherlink.com 1.10,2013-05-21 11:58:00,
2013-05-21 05:13:00,52.2,46.0,29.89,NE,41,0.0,0.0,79,0.00,,,0.00,0,weatherlink.com 1.10,2013-05-21 12:13:00,
2013-05-21 05:28:00,52.6,46.0,29.90,NE,41,0.0,0.0,78,0.00,,,0.00,0,weatherlink.com 1.10,2013-05-21 12:28:00,
2013-05-21 05:43:00,52.9,46.0,29.91,NE,41,0.0,0.0,77,0.00,,,0.00,0,weatherlink.com 1.10,2013-05-21 12:43:00,
2013-05-21 05:58:00,53.2,46.0,29.91,NE,41,0.0,0.0,76,0.00,,,0.00,0,weatherlink.com 1.10,2013-05-21 12:58:00,
2013-05-21 06:13:00,53.6,46.0,29.91,NE,41,0.0,0.0,74,0.00,,,0.00,7,weatherlink.com 1.10,2013-05-21 13:13:00,
2013-05-21 06:28:00,53.9,46.0,29.91,NE,41,0.0,0.0,75,0.00,,,0.00,18,weatherlink.com 1.10,2013-05-21 13:28:00,
2013-05-21 06:43:00,54.1,46.0,29.92,NE,41,0.0,1.0,74,0.00,,,0.00,32,weatherlink.com 1.10,2013-05-21 13:43:00,
2013-05-21 06:58:00,54.6,46.0,29.93,NE,49,0.0,2.0,74,0.00,,,0.00,49,weatherlink.com 1.10,2013-05-21 13:58:00,
2013-05-21 07:13:00,55.1,47.0,29.93,West,279,1.0,1.0,73,0.00,,,0.00,63,weatherlink.com 1.10,2013-05-21 14:13:00,
2013-05-21 07:28:00,55.8,47.0,29.93,West,265,0.0,0.0,72,0.00,,,0.00,144,weatherlink.com 1.10,2013-05-21 14:28:00,
2013-05-21 07:43:00,57.0,47.0,29.94,West,265,0.0,1.0,69,0.00,,,0.00,69,weatherlink.com 1.10,2013-05-21 14:43:00,
2013-05-21 07:58:00,57.7,47.0,29.94,West,266,0.0,1.0,68,0.00,,,0.00,163,weatherlink.com 1.10,2013-05-21 14:58:00,
2013-05-21 08:13:00,60.0,47.0,29.94,ENE,63,0.0,2.0,63,0.00,,,0.00,218,weatherlink.com 1.10,2013-05-21 15:13:00,
2013-05-21 08:29:00,64.3,48.0,29.94,East,83,1.0,1.0,55,0.00,,,0.00,339,weatherlink.com 1.10,2013-05-21 15:29:00,
2013-05-21 08:44:00,64.6,48.0,29.94,East,83,0.0,2.0,55,0.00,,,0.00,506,weatherlink.com 1.10,2013-05-21 15:44:00,
2013-05-21 08:59:00,65.2,46.0,29.95,WNW,284,3.0,4.0,50,0.00,,,0.00,555,weatherlink.com 1.10,2013-05-21 15:59:00,
2013-05-21 09:14:00,65.9,47.0,29.95,West,275,0.0,3.0,50,0.00,,,0.00,601,weatherlink.com 1.10,2013-05-21 16:14:00,
2013-05-21 09:29:00,66.5,46.0,29.95,WSW,257,1.0,5.0,48,0.00,,,0.00,647,weatherlink.com 1.10,2013-05-21 16:29:00,
2013-05-21 09:44:00,66.3,47.0,29.95,West,260,0.0,6.0,50,0.00,,,0.00,694,weatherlink.com 1.10,2013-05-21 16:44:00,
2013-05-21 09:59:00,67.9,48.0,29.95,WNW,287,1.0,3.0,50,0.00,,,0.00,733,weatherlink.com 1.10,2013-05-21 16:59:00,
2013-05-21 10:14:00,68.4,49.0,29.95,WSW,256,1.0,4.0,50,0.00,,,0.00,777,weatherlink.com 1.10,2013-05-21 17:14:00,
2013-05-21 10:29:00,70.4,49.0,29.95,West,273,2.0,3.0,47,0.00,,,0.00,816,weatherlink.com 1.10,2013-05-21 17:29:00,
2013-05-21 10:44:00,69.5,48.0,29.96,West,271,1.0,5.0,47,0.00,,,0.00,854,weatherlink.com 1.10,2013-05-21 17:44:00,
2013-05-21 10:59:00,70.0,50.0,29.96,WSW,258,0.0,4.0,49,0.00,,,0.00,884,weatherlink.com 1.10,2013-05-21 17:59:00,
2013-05-21 11:14:00,70.8,48.0,29.95,West,276,1.0,4.0,44,0.00,,,0.00,916,weatherlink.com 1.10,2013-05-21 18:14:00,
2013-05-21 11:29:00,71.1,48.0,29.96,West,272,2.0,6.0,44,0.00,,,0.00,930,weatherlink.com 1.10,2013-05-21 18:29:00,
2013-05-21 11:44:00,71.8,43.0,29.95,WNW,294,2.0,5.0,36,0.00,,,0.00,956,weatherlink.com 1.10,2013-05-21 18:44:00,
2013-05-21 11:59:00,71.5,45.0,29.95,NNW,327,2.0,5.0,39,0.00,,,0.00,972,weatherlink.com 1.10,2013-05-21 18:59:00,
2013-05-21 12:14:00,71.5,40.0,29.95,WNW,287,1.0,7.0,32,0.00,,,0.00,976,weatherlink.com 1.10,2013-05-21 19:14:00,
2013-05-21 12:29:00,71.3,43.0,29.95,West,267,3.0,5.0,36,0.00,,,0.00,984,weatherlink.com 1.10,2013-05-21 19:29:00,
2013-05-21 12:44:00,72.2,43.0,29.95,WNW,282,1.0,4.0,35,0.00,,,0.00,991,weatherlink.com 1.10,2013-05-21 19:44:00,
2013-05-21 12:59:00,70.3,42.0,29.94,West,269,3.0,7.0,36,0.00,,,0.00,1000,weatherlink.com 1.10,2013-05-21 19:59:00,
2013-05-21 13:14:00,69.0,45.0,29.94,West,278,3.0,8.0,42,0.00,,,0.00,986,weatherlink.com 1.10,2013-05-21 20:14:00,
2013-05-21 13:29:00,69.7,46.0,29.94,WNW,287,4.0,6.0,43,0.00,,,0.00,308,weatherlink.com 1.10,2013-05-21 20:29:00,
2013-05-21 13:44:00,68.9,46.0,29.94,WNW,300,2.0,6.0,44,0.00,,,0.00,67,weatherlink.com 1.10,2013-05-21 20:44:00,
2013-05-21 13:59:00,68.7,48.0,29.94,WSW,248,1.0,5.0,47,0.00,,,0.00,95,weatherlink.com 1.10,2013-05-21 20:59:00,
2013-05-21 14:14:00,68.7,48.0,29.94,WSW,240,3.0,6.0,47,0.00,,,0.00,58,weatherlink.com 1.10,2013-05-21 21:14:00,
2013-05-21 14:29:00,68.6,46.0,29.94,WSW,248,1.0,6.0,45,0.00,,,0.00,91,weatherlink.com 1.10,2013-05-21 21:29:00,
2013-05-21 14:44:00,68.5,47.0,29.94,West,271,1.0,6.0,46,0.00,,,0.00,163,weatherlink.com 1.10,2013-05-21 21:44:00,
2013-05-21 14:59:00,68.3,46.0,29.94,West,267,2.0,4.0,45,0.00,,,0.00,98,weatherlink.com 1.10,2013-05-21 21:59:00,
2013-05-21 15:29:00,68.0,43.0,29.93,West,276,6.0,9.0,41,0.00,,,0.00,42,weatherlink.com 1.10,2013-05-21 22:29:00,
2013-05-21 15:44:00,67.4,45.0,29.92,West,267,6.0,11.0,45,0.00,,,0.00,40,weatherlink.com 1.10,2013-05-21 22:44:00,
2013-05-21 15:59:00,67.6,44.0,29.92,WNW,282,2.0,8.0,43,0.00,,,0.00,54,weatherlink.com 1.10,2013-05-21 22:59:00,
2013-05-21 16:14:00,67.1,42.0,29.91,West,264,5.0,9.0,41,0.00,,,0.00,37,weatherlink.com 1.10,2013-05-21 23:14:00,
2013-05-21 16:29:00,67.4,42.0,29.91,West,261,4.0,8.0,40,0.00,,,0.00,40,weatherlink.com 1.10,2013-05-21 23:29:00,
2013-05-21 16:45:00,66.8,42.0,29.91,WSW,252,3.0,10.0,41,0.00,,,0.00,35,weatherlink.com 1.10,2013-05-21 23:45:00,
2013-05-21 17:00:00,66.2,42.0,29.91,WNW,294,2.0,8.0,42,0.00,,,0.00,95,weatherlink.com 1.10,2013-05-22 00:00:00,
2013-05-21 17:15:00,65.6,43.0,29.92,WSW,257,0.0,6.0,44,0.00,,,0.00,63,weatherlink.com 1.10,2013-05-22 00:15:00,
2013-05-21 17:30:00,65.2,44.0,29.92,West,273,2.0,8.0,46,0.00,,,0.00,32,weatherlink.com 1.10,2013-05-22 00:30:00,
2013-05-21 17:45:00,64.3,44.0,29.91,West,275,5.0,7.0,48,0.00,,,0.00,32,weatherlink.com 1.10,2013-05-22 00:45:00,
2013-05-21 18:00:00,63.2,44.0,29.90,West,268,8.0,10.0,50,0.00,,,0.00,26,weatherlink.com 1.10,2013-05-22 01:00:00,
2013-05-21 18:15:00,62.3,44.0,29.90,West,261,4.0,10.0,51,0.00,,,0.00,25,weatherlink.com 1.10,2013-05-22 01:15:00,
2013-05-21 18:30:00,61.9,44.0,29.90,West,277,0.0,5.0,53,0.00,,,0.00,21,weatherlink.com 1.10,2013-05-22 01:30:00,
2013-05-21 18:45:00,62.2,45.0,29.90,West,266,0.0,4.0,53,0.00,,,0.00,44,weatherlink.com 1.10,2013-05-22 01:45:00,
2013-05-21 19:00:00,62.0,44.0,29.91,West,273,0.0,4.0,53,0.00,,,0.00,42,weatherlink.com 1.10,2013-05-22 02:00:00,
2013-05-21 19:15:00,61.4,44.0,29.91,West,277,1.0,4.0,53,0.00,,,0.00,19,weatherlink.com 1.10,2013-05-22 02:15:00,
2013-05-21 19:30:00,60.6,44.0,29.91,WSW,253,2.0,5.0,54,0.00,,,0.00,14,weatherlink.com 1.10,2013-05-22 02:30:00,
2013-05-21 19:45:00,59.6,43.0,29.92,WSW,257,0.0,6.0,54,0.00,,,0.00,11,weatherlink.com 1.10,2013-05-22 02:45:00,
2013-05-21 20:00:00,58.8,42.0,29.91,West,280,1.0,5.0,55,0.00,,,0.00,5,weatherlink.com 1.10,2013-05-22 03:00:00,
2013-05-21 20:15:00,58.1,43.0,29.92,West,280,0.0,2.0,57,0.00,,,0.00,0,weatherlink.com 1.10,2013-05-22 03:15:00,
2013-05-21 20:30:00,56.9,42.0,29.92,West,263,1.0,5.0,59,0.00,,,0.00,0,weatherlink.com 1.10,2013-05-22 03:30:00,
2013-05-21 20:45:00,55.7,42.0,29.92,West,268,3.0,7.0,61,0.00,,,0.00,0,weatherlink.com 1.10,2013-05-22 03:45:00,
2013-05-21 21:00:00,54.7,42.0,29.93,West,273,2.0,4.0,63,0.00,,,0.00,0,weatherlink.com 1.10,2013-05-22 04:00:00,
2013-05-21 21:15:00,54.1,42.0,29.93,West,262,1.0,4.0,63,0.00,,,0.00,0,weatherlink.com 1.10,2013-05-22 04:15:00,
2013-05-21 21:30:00,53.7,41.0,29.94,West,278,0.0,4.0,63,0.00,,,0.00,0,weatherlink.com 1.10,2013-05-22 04:30:00,
2013-05-21 21:45:00,53.3,41.0,29.94,West,274,1.0,5.0,64,0.00,,,0.00,0,weatherlink.com 1.10,2013-05-22 04:45:00,
2013-05-21 22:00:00,53.0,42.0,29.94,West,263,2.0,5.0,66,0.00,,,0.00,0,weatherlink.com 1.10,2013-05-22 05:00:00,
2013-05-21 22:15:00,52.6,41.0,29.94,West,268,5.0,7.0,66,0.00,,,0.00,0,weatherlink.com 1.10,2013-05-22 05:15:00,
2013-05-21 22:30:00,52.5,41.0,29.94,West,266,5.0,9.0,66,0.00,,,0.00,0,weatherlink.com 1.10,2013-05-22 05:30:00,
2013-05-21 22:45:00,52.3,41.0,29.94,West,266,6.0,11.0,66,0.00,,,0.00,0,weatherlink.com 1.10,2013-05-22 05:45:00,
2013-05-21 23:00:00,52.2,41.0,29.95,West,279,4.0,5.0,66,0.00,,,0.00,0,weatherlink.com 1.10,2013-05-22 06:00:00,
2013-05-21 23:15:00,51.9,41.0,29.95,West,274,4.0,7.0,66,0.00,,,0.00,0,weatherlink.com 1.10,2013-05-22 06:15:00,
2013-05-21 23:30:00,51.7,41.0,29.95,West,273,2.0,6.0,66,0.00,,,0.00,0,weatherlink.com 1.10,2013-05-22 06:30:00,
2013-05-21 23:45:00,51.4,40.0,29.95,West,274,3.0,6.0,65,0.00,,,0.00,0,weatherlink.com 1.10,2013-05-22 06:45:00,